sensor_id;sensor_type;location;lat;lon;timestamp;pressure;altitude;pressure_sealevel;temperature;humidity
58785;BME280;44557;51.862;19.378;2023-04-19T00:01:28;99654.34;;;10.36;86.05
58785;BME280;44557;51.862;19.378;2023-04-19T00:03:31;99647.09;;;10.40;86.26
58785;BME280;44557;51.862;19.378;2023-04-19T00:05:32;99654.31;;;10.26;87.54
58785;BME280;44557;51.862;19.378;2023-04-19T00:07:34;99647.81;;;10.32;88.12
58785;BME280;44557;51.862;19.378;2023-04-19T00:09:36;99646.61;;;10.20;89.10
58785;BME280;44557;51.862;19.378;2023-04-19T00:11:38;99649.45;;;10.23;89.33
58785;BME280;44557;51.862;19.378;2023-04-19T00:13:40;99640.27;;;10.17;89.78
58785;BME280;44557;51.862;19.378;2023-04-19T00:15:41;99643.11;;;10.16;90.03
58785;BME280;44557;51.862;19.378;2023-04-19T00:17:44;99639.91;;;10.20;89.74
58785;BME280;44557;51.862;19.378;2023-04-19T00:19:49;99638.11;;;10.16;89.79
58785;BME280;44557;51.862;19.378;2023-04-19T00:21:51;99641.10;;;10.02;90.10
58785;BME280;44557;51.862;19.378;2023-04-19T00:23:53;99638.80;;;9.98;89.94
58785;BME280;44557;51.862;19.378;2023-04-19T00:25:54;99637.33;;;10.00;89.74
58785;BME280;44557;51.862;19.378;2023-04-19T00:27:56;99636.98;;;9.99;90.00
58785;BME280;44557;51.862;19.378;2023-04-19T00:29:58;99631.16;;;9.98;90.49
58785;BME280;44557;51.862;19.378;2023-04-19T00:31:59;99629.61;;;10.00;90.83
58785;BME280;44557;51.862;19.378;2023-04-19T00:34:02;99628.25;;;9.97;91.89
58785;BME280;44557;51.862;19.378;2023-04-19T00:36:04;99624.62;;;9.89;92.60
58785;BME280;44557;51.862;19.378;2023-04-19T00:38:06;99620.98;;;9.88;93.64
58785;BME280;44557;51.862;19.378;2023-04-19T00:40:08;99616.77;;;9.87;94.33
58785;BME280;44557;51.862;19.378;2023-04-19T00:42:10;99612.46;;;9.90;94.10
58785;BME280;44557;51.862;19.378;2023-04-19T00:44:11;99611.34;;;9.79;94.75
58785;BME280;44557;51.862;19.378;2023-04-19T00:46:14;99612.90;;;9.81;95.11
58785;BME280;44557;51.862;19.378;2023-04-19T00:48:16;99613.62;;;9.81;95.41
58785;BME280;44557;51.862;19.378;2023-04-19T00:50:17;99610.39;;;9.79;95.14
58785;BME280;44557;51.862;19.378;2023-04-19T00:52:21;99605.13;;;9.69;95.57
58785;BME280;44557;51.862;19.378;2023-04-19T00:54:23;99605.33;;;9.78;95.08
58785;BME280;44557;51.862;19.378;2023-04-19T00:56:26;99599.96;;;9.66;95.58
58785;BME280;44557;51.862;19.378;2023-04-19T00:58:28;99599.62;;;9.70;95.54
58785;BME280;44557;51.862;19.378;2023-04-19T01:00:32;99597.17;;;9.60;95.98
58785;BME280;44557;51.862;19.378;2023-04-19T01:02:34;99595.14;;;9.53;96.43
58785;BME280;44557;51.862;19.378;2023-04-19T01:04:37;99589.41;;;9.50;96.79
58785;BME280;44557;51.862;19.378;2023-04-19T01:06:39;99586.52;;;9.59;96.55
58785;BME280;44557;51.862;19.378;2023-04-19T01:08:41;99588.38;;;9.71;96.27
58785;BME280;44557;51.862;19.378;2023-04-19T01:10:43;99583.86;;;9.61;96.16
58785;BME280;44557;51.862;19.378;2023-04-19T01:12:45;99581.92;;;9.50;95.82
58785;BME280;44557;51.862;19.378;2023-04-19T01:14:47;99582.05;;;9.47;94.97
58785;BME280;44557;51.862;19.378;2023-04-19T01:16:49;99577.45;;;9.28;94.89
58785;BME280;44557;51.862;19.378;2023-04-19T01:18:51;99579.21;;;9.16;94.96
58785;BME280;44557;51.862;19.378;2023-04-19T01:20:53;99580.77;;;9.11;94.82
58785;BME280;44557;51.862;19.378;2023-04-19T01:22:55;99581.80;;;9.00;94.87
58785;BME280;44557;51.862;19.378;2023-04-19T01:24:57;99578.32;;;9.09;94.10
58785;BME280;44557;51.862;19.378;2023-04-19T01:26:59;99584.14;;;8.94;94.81
58785;BME280;44557;51.862;19.378;2023-04-19T01:29:01;99579.05;;;8.91;95.22
58785;BME280;44557;51.862;19.378;2023-04-19T01:31:03;99575.10;;;9.01;94.17
58785;BME280;44557;51.862;19.378;2023-04-19T01:33:05;99580.48;;;8.89;95.42
58785;BME280;44557;51.862;19.378;2023-04-19T01:35:07;99573.65;;;9.06;94.28
58785;BME280;44557;51.862;19.378;2023-04-19T01:37:12;99577.08;;;8.85;94.72
58785;BME280;44557;51.862;19.378;2023-04-19T01:39:13;99574.77;;;8.82;95.18
58785;BME280;44557;51.862;19.378;2023-04-19T01:41:15;99573.30;;;8.79;94.69
58785;BME280;44557;51.862;19.378;2023-04-19T01:43:17;99573.10;;;8.72;94.27
58785;BME280;44557;51.862;19.378;2023-04-19T01:45:19;99570.26;;;8.62;94.75
58785;BME280;44557;51.862;19.378;2023-04-19T01:47:22;99567.84;;;8.57;94.04
58785;BME280;44557;51.862;19.378;2023-04-19T01:49:25;99567.39;;;8.56;93.10
58785;BME280;44557;51.862;19.378;2023-04-19T01:51:26;99564.78;;;8.46;93.99
58785;BME280;44557;51.862;19.378;2023-04-19T01:53:28;99567.28;;;8.53;93.71
58785;BME280;44557;51.862;19.378;2023-04-19T01:55:30;99564.58;;;8.50;93.37
58785;BME280;44557;51.862;19.378;2023-04-19T01:57:32;99562.31;;;8.60;92.13
58785;BME280;44557;51.862;19.378;2023-04-19T01:59:33;99562.77;;;8.45;92.04
58785;BME280;44557;51.862;19.378;2023-04-19T02:01:36;99560.30;;;8.40;92.24
58785;BME280;44557;51.862;19.378;2023-04-19T02:03:41;99558.29;;;8.43;92.29
58785;BME280;44557;51.862;19.378;2023-04-19T02:05:45;99560.84;;;8.31;91.73
58785;BME280;44557;51.862;19.378;2023-04-19T02:07:47;99562.66;;;8.26;91.29
58785;BME280;44557;51.862;19.378;2023-04-19T02:09:48;99561.42;;;8.32;90.94
58785;BME280;44557;51.862;19.378;2023-04-19T02:11:50;99561.40;;;8.19;91.40
58785;BME280;44557;51.862;19.378;2023-04-19T02:13:52;99558.87;;;8.24;91.37
58785;BME280;44557;51.862;19.378;2023-04-19T02:15:53;99555.31;;;8.11;91.74
58785;BME280;44557;51.862;19.378;2023-04-19T02:17:55;99559.25;;;8.06;92.19
58785;BME280;44557;51.862;19.378;2023-04-19T02:19:57;99553.97;;;8.04;92.64
58785;BME280;44557;51.862;19.378;2023-04-19T02:21:59;99553.27;;;7.93;92.64
58785;BME280;44557;51.862;19.378;2023-04-19T02:24:01;99552.63;;;8.01;91.77
58785;BME280;44557;51.862;19.378;2023-04-19T02:26:03;99544.22;;;8.06;91.29
58785;BME280;44557;51.862;19.378;2023-04-19T02:28:04;99545.30;;;8.08;90.51
58785;BME280;44557;51.862;19.378;2023-04-19T02:30:07;99543.19;;;7.94;90.59
58785;BME280;44557;51.862;19.378;2023-04-19T02:32:11;99537.07;;;7.77;91.34
58785;BME280;44557;51.862;19.378;2023-04-19T02:34:13;99539.69;;;7.88;91.34
58785;BME280;44557;51.862;19.378;2023-04-19T02:36:14;99536.00;;;7.91;90.45
58785;BME280;44557;51.862;19.378;2023-04-19T02:38:16;99529.42;;;7.86;90.39
58785;BME280;44557;51.862;19.378;2023-04-19T02:40:18;99526.17;;;7.78;91.23
58785;BME280;44557;51.862;19.378;2023-04-19T02:42:21;99528.39;;;7.81;91.07
58785;BME280;44557;51.862;19.378;2023-04-19T02:44:23;99529.67;;;7.87;90.90
58785;BME280;44557;51.862;19.378;2023-04-19T02:46:25;99524.66;;;7.70;91.41
58785;BME280;44557;51.862;19.378;2023-04-19T02:48:27;99524.14;;;7.71;91.53
58785;BME280;44557;51.862;19.378;2023-04-19T02:50:30;99521.92;;;7.69;91.40
58785;BME280;44557;51.862;19.378;2023-04-19T02:52:32;99524.80;;;7.68;91.30
58785;BME280;44557;51.862;19.378;2023-04-19T02:54:34;99518.60;;;7.55;91.99
58785;BME280;44557;51.862;19.378;2023-04-19T02:56:36;99513.52;;;7.58;91.29
58785;BME280;44557;51.862;19.378;2023-04-19T02:58:38;99510.88;;;7.53;91.54
58785;BME280;44557;51.862;19.378;2023-04-19T03:00:44;99505.50;;;7.51;92.02
58785;BME280;44557;51.862;19.378;2023-04-19T03:03:06;99502.95;;;7.43;92.51
58785;BME280;44557;51.862;19.378;2023-04-19T03:05:11;99496.61;;;7.56;91.37
58785;BME280;44557;51.862;19.378;2023-04-19T03:07:14;99493.38;;;7.54;90.51
58785;BME280;44557;51.862;19.378;2023-04-19T03:11:28;99491.30;;;7.29;91.50
58785;BME280;44557;51.862;19.378;2023-04-19T03:14:44;99490.59;;;7.37;91.57
58785;BME280;44557;51.862;19.378;2023-04-19T03:19:45;99484.61;;;7.39;90.46
58785;BME280;44557;51.862;19.378;2023-04-19T03:22:03;99481.43;;;7.13;91.60
58785;BME280;44557;51.862;19.378;2023-04-19T03:27:49;99476.29;;;7.22;91.39
58785;BME280;44557;51.862;19.378;2023-04-19T03:29:52;99474.67;;;7.21;91.61
58785;BME280;44557;51.862;19.378;2023-04-19T03:32:17;99477.05;;;7.13;90.35
58785;BME280;44557;51.862;19.378;2023-04-19T03:34:19;99481.10;;;7.03;90.47
58785;BME280;44557;51.862;19.378;2023-04-19T03:37:04;99479.30;;;7.14;89.66
58785;BME280;44557;51.862;19.378;2023-04-19T03:39:26;99481.21;;;7.12;89.90
58785;BME280;44557;51.862;19.378;2023-04-19T03:44:10;99475.55;;;7.05;89.34
58785;BME280;44557;51.862;19.378;2023-04-19T03:46:32;99475.21;;;7.04;89.17
58785;BME280;44557;51.862;19.378;2023-04-19T03:55:46;99471.02;;;6.90;89.45
58785;BME280;44557;51.862;19.378;2023-04-19T04:01:24;99473.55;;;6.80;90.18
58785;BME280;44557;51.862;19.378;2023-04-19T04:03:21;99471.89;;;6.62;90.51
58785;BME280;44557;51.862;19.378;2023-04-19T04:05:38;99473.17;;;6.82;89.56
58785;BME280;44557;51.862;19.378;2023-04-19T04:11:01;99471.24;;;6.82;90.23
58785;BME280;44557;51.862;19.378;2023-04-19T04:13:21;99471.33;;;6.67;89.59
58785;BME280;44557;51.862;19.378;2023-04-19T04:16:31;99470.11;;;6.59;90.03
58785;BME280;44557;51.862;19.378;2023-04-19T04:28:03;99456.55;;;6.57;89.58
58785;BME280;44557;51.862;19.378;2023-04-19T04:35:48;99440.40;;;6.74;88.66
58785;BME280;44557;51.862;19.378;2023-04-19T04:37:53;99440.45;;;6.67;89.15
58785;BME280;44557;51.862;19.378;2023-04-19T04:39:55;99434.13;;;6.51;89.67
58785;BME280;44557;51.862;19.378;2023-04-19T04:41:56;99437.61;;;6.55;90.13
58785;BME280;44557;51.862;19.378;2023-04-19T04:44:00;99429.87;;;6.50;90.06
58785;BME280;44557;51.862;19.378;2023-04-19T04:46:05;99432.48;;;6.51;90.01
58785;BME280;44557;51.862;19.378;2023-04-19T04:48:07;99429.46;;;6.52;90.14
58785;BME280;44557;51.862;19.378;2023-04-19T04:50:10;99425.02;;;6.47;89.95
58785;BME280;44557;51.862;19.378;2023-04-19T04:52:11;99425.92;;;6.40;90.06
58785;BME280;44557;51.862;19.378;2023-04-19T04:54:13;99427.89;;;6.42;90.57
58785;BME280;44557;51.862;19.378;2023-04-19T04:56:15;99428.27;;;6.29;91.26
58785;BME280;44557;51.862;19.378;2023-04-19T04:58:16;99423.38;;;6.29;91.41
58785;BME280;44557;51.862;19.378;2023-04-19T05:00:18;99428.71;;;6.38;91.48
58785;BME280;44557;51.862;19.378;2023-04-19T05:02:20;99427.77;;;6.42;91.08
58785;BME280;44557;51.862;19.378;2023-04-19T05:04:24;99428.81;;;6.38;91.27
58785;BME280;44557;51.862;19.378;2023-04-19T05:06:26;99426.41;;;6.31;91.50
58785;BME280;44557;51.862;19.378;2023-04-19T05:08:27;99428.05;;;6.42;91.29
58785;BME280;44557;51.862;19.378;2023-04-19T05:10:29;99427.46;;;6.51;90.37
58785;BME280;44557;51.862;19.378;2023-04-19T05:12:31;99433.98;;;6.48;90.73
58785;BME280;44557;51.862;19.378;2023-04-19T05:14:32;99432.77;;;6.47;91.04
58785;BME280;44557;51.862;19.378;2023-04-19T05:16:34;99430.11;;;6.44;91.17
58785;BME280;44557;51.862;19.378;2023-04-19T05:18:36;99432.66;;;6.60;90.64
58785;BME280;44557;51.862;19.378;2023-04-19T05:20:37;99433.20;;;6.58;90.63
58785;BME280;44557;51.862;19.378;2023-04-19T05:22:39;99430.73;;;6.57;90.96
58785;BME280;44557;51.862;19.378;2023-04-19T05:24:41;99428.52;;;6.59;90.46
58785;BME280;44557;51.862;19.378;2023-04-19T05:26:42;99425.77;;;6.58;91.05
58785;BME280;44557;51.862;19.378;2023-04-19T05:28:44;99431.19;;;6.63;90.68
58785;BME280;44557;51.862;19.378;2023-04-19T05:30:46;99425.97;;;6.57;90.83
58785;BME280;44557;51.862;19.378;2023-04-19T05:32:56;99429.18;;;6.60;90.87
58785;BME280;44557;51.862;19.378;2023-04-19T05:34:57;99421.91;;;6.77;90.42
58785;BME280;44557;51.862;19.378;2023-04-19T05:37:01;99422.77;;;6.67;91.13
58785;BME280;44557;51.862;19.378;2023-04-19T05:39:04;99423.41;;;6.67;90.74
58785;BME280;44557;51.862;19.378;2023-04-19T05:41:05;99421.29;;;6.70;90.92
58785;BME280;44557;51.862;19.378;2023-04-19T05:43:07;99417.92;;;6.75;90.16
58785;BME280;44557;51.862;19.378;2023-04-19T05:45:09;99421.48;;;6.71;90.22
58785;BME280;44557;51.862;19.378;2023-04-19T05:47:12;99413.65;;;6.86;89.91
58785;BME280;44557;51.862;19.378;2023-04-19T05:49:14;99420.39;;;6.68;90.44
58785;BME280;44557;51.862;19.378;2023-04-19T05:51:18;99417.58;;;6.70;90.78
58785;BME280;44557;51.862;19.378;2023-04-19T05:53:20;99413.36;;;6.68;90.81
58785;BME280;44557;51.862;19.378;2023-04-19T05:55:21;99413.45;;;6.71;90.52
58785;BME280;44557;51.862;19.378;2023-04-19T05:57:23;99409.57;;;6.72;91.04
58785;BME280;44557;51.862;19.378;2023-04-19T05:59:27;99411.70;;;6.76;90.56
58785;BME280;44557;51.862;19.378;2023-04-19T06:01:29;99409.02;;;6.83;90.29
58785;BME280;44557;51.862;19.378;2023-04-19T06:03:30;99404.98;;;6.89;89.90
58785;BME280;44557;51.862;19.378;2023-04-19T06:05:33;99402.87;;;6.89;89.88
58785;BME280;44557;51.862;19.378;2023-04-19T06:07:39;99402.39;;;6.87;90.33
58785;BME280;44557;51.862;19.378;2023-04-19T06:09:41;99402.89;;;6.85;90.73
58785;BME280;44557;51.862;19.378;2023-04-19T06:11:43;99393.20;;;6.95;90.57
58785;BME280;44557;51.862;19.378;2023-04-19T06:13:45;99396.20;;;6.97;90.42
58785;BME280;44557;51.862;19.378;2023-04-19T06:15:47;99396.48;;;6.76;91.56
58785;BME280;44557;51.862;19.378;2023-04-19T06:17:49;99396.31;;;6.74;91.73
58785;BME280;44557;51.862;19.378;2023-04-19T06:19:52;99394.19;;;6.81;90.98
58785;BME280;44557;51.862;19.378;2023-04-19T06:21:53;99397.09;;;6.81;90.71
58785;BME280;44557;51.862;19.378;2023-04-19T06:23:55;99397.26;;;6.88;91.28
58785;BME280;44557;51.862;19.378;2023-04-19T06:25:57;99399.13;;;6.88;91.48
58785;BME280;44557;51.862;19.378;2023-04-19T06:28:00;99398.39;;;6.94;90.99
58785;BME280;44557;51.862;19.378;2023-04-19T06:30:02;99397.96;;;6.93;90.98
58785;BME280;44557;51.862;19.378;2023-04-19T06:32:04;99395.78;;;6.95;91.04
58785;BME280;44557;51.862;19.378;2023-04-19T06:34:06;99399.45;;;7.02;90.29
58785;BME280;44557;51.862;19.378;2023-04-19T06:36:08;99400.45;;;6.96;91.08
58785;BME280;44557;51.862;19.378;2023-04-19T06:38:10;99395.88;;;6.92;91.40
58785;BME280;44557;51.862;19.378;2023-04-19T06:40:12;99394.05;;;7.00;90.35
58785;BME280;44557;51.862;19.378;2023-04-19T06:42:14;99392.00;;;6.81;90.62
58785;BME280;44557;51.862;19.378;2023-04-19T06:44:15;99399.19;;;6.87;90.70
58785;BME280;44557;51.862;19.378;2023-04-19T06:46:17;99395.52;;;6.87;90.53
58785;BME280;44557;51.862;19.378;2023-04-19T06:48:19;99395.52;;;6.79;91.58
58785;BME280;44557;51.862;19.378;2023-04-19T06:50:21;99395.77;;;6.95;91.19
58785;BME280;44557;51.862;19.378;2023-04-19T06:52:23;99401.13;;;7.03;91.32
58785;BME280;44557;51.862;19.378;2023-04-19T06:54:24;99399.52;;;7.05;91.30
58785;BME280;44557;51.862;19.378;2023-04-19T06:56:41;99401.55;;;7.17;90.77
58785;BME280;44557;51.862;19.378;2023-04-19T06:58:46;99402.39;;;7.18;90.43
58785;BME280;44557;51.862;19.378;2023-04-19T07:00:47;99403.95;;;7.20;90.15
58785;BME280;44557;51.862;19.378;2023-04-19T07:02:49;99399.91;;;7.24;89.76
58785;BME280;44557;51.862;19.378;2023-04-19T07:04:51;99401.44;;;7.25;89.24
58785;BME280;44557;51.862;19.378;2023-04-19T07:06:54;99403.20;;;7.18;89.33
58785;BME280;44557;51.862;19.378;2023-04-19T07:08:55;99407.76;;;7.21;89.71
58785;BME280;44557;51.862;19.378;2023-04-19T07:10:57;99403.04;;;7.10;90.73
58785;BME280;44557;51.862;19.378;2023-04-19T07:12:58;99403.35;;;7.09;90.46
58785;BME280;44557;51.862;19.378;2023-04-19T07:15:00;99406.48;;;7.13;90.45
58785;BME280;44557;51.862;19.378;2023-04-19T07:17:04;99402.65;;;7.08;91.14
58785;BME280;44557;51.862;19.378;2023-04-19T07:19:06;99400.09;;;7.07;90.70
58785;BME280;44557;51.862;19.378;2023-04-19T07:21:09;99400.27;;;7.02;91.49
58785;BME280;44557;51.862;19.378;2023-04-19T07:23:10;99397.72;;;6.96;92.14
58785;BME280;44557;51.862;19.378;2023-04-19T07:25:13;99399.67;;;7.03;92.08
58785;BME280;44557;51.862;19.378;2023-04-19T07:27:15;99397.09;;;7.09;91.89
58785;BME280;44557;51.862;19.378;2023-04-19T07:29:16;99396.19;;;7.15;91.98
58785;BME280;44557;51.862;19.378;2023-04-19T07:31:19;99395.08;;;7.07;92.05
58785;BME280;44557;51.862;19.378;2023-04-19T07:33:22;99395.69;;;7.19;91.73
58785;BME280;44557;51.862;19.378;2023-04-19T07:35:25;99400.64;;;7.11;91.90
58785;BME280;44557;51.862;19.378;2023-04-19T07:37:26;99400.34;;;7.15;91.91
58785;BME280;44557;51.862;19.378;2023-04-19T07:39:28;99398.61;;;7.11;91.97
58785;BME280;44557;51.862;19.378;2023-04-19T07:41:31;99399.54;;;7.14;91.72
58785;BME280;44557;51.862;19.378;2023-04-19T07:43:33;99400.02;;;7.20;91.21
58785;BME280;44557;51.862;19.378;2023-04-19T07:45:35;99395.33;;;7.16;91.38
58785;BME280;44557;51.862;19.378;2023-04-19T07:47:37;99397.20;;;7.16;91.10
58785;BME280;44557;51.862;19.378;2023-04-19T07:49:38;99396.94;;;7.12;91.93
58785;BME280;44557;51.862;19.378;2023-04-19T07:51:40;99395.23;;;7.19;91.53
58785;BME280;44557;51.862;19.378;2023-04-19T07:53:42;99397.38;;;7.15;92.00
58785;BME280;44557;51.862;19.378;2023-04-19T07:55:44;99394.71;;;7.11;92.10
58785;BME280;44557;51.862;19.378;2023-04-19T07:57:46;99396.33;;;7.14;91.59
58785;BME280;44557;51.862;19.378;2023-04-19T07:59:49;99392.89;;;7.09;92.20
58785;BME280;44557;51.862;19.378;2023-04-19T08:01:51;99391.65;;;7.16;92.32
58785;BME280;44557;51.862;19.378;2023-04-19T08:03:53;99391.36;;;7.17;92.00
58785;BME280;44557;51.862;19.378;2023-04-19T08:05:55;99389.68;;;7.18;92.54
58785;BME280;44557;51.862;19.378;2023-04-19T08:07:57;99391.96;;;7.20;92.66
58785;BME280;44557;51.862;19.378;2023-04-19T08:09:59;99390.36;;;7.27;92.61
58785;BME280;44557;51.862;19.378;2023-04-19T08:12:00;99387.52;;;7.23;92.91
58785;BME280;44557;51.862;19.378;2023-04-19T08:14:02;99389.65;;;7.15;94.72
58785;BME280;44557;51.862;19.378;2023-04-19T08:16:05;99385.17;;;7.13;95.48
58785;BME280;44557;51.862;19.378;2023-04-19T08:18:06;99385.63;;;7.16;95.33
58785;BME280;44557;51.862;19.378;2023-04-19T08:20:09;99380.17;;;7.20;95.23
58785;BME280;44557;51.862;19.378;2023-04-19T08:22:12;99381.14;;;7.26;94.92
58785;BME280;44557;51.862;19.378;2023-04-19T08:24:14;99381.33;;;7.20;94.81
58785;BME280;44557;51.862;19.378;2023-04-19T08:26:16;99378.17;;;7.14;95.39
58785;BME280;44557;51.862;19.378;2023-04-19T08:28:17;99379.44;;;7.11;94.86
58785;BME280;44557;51.862;19.378;2023-04-19T08:30:19;99380.31;;;7.21;94.67
58785;BME280;44557;51.862;19.378;2023-04-19T08:32:21;99382.55;;;7.28;94.95
58785;BME280;44557;51.862;19.378;2023-04-19T08:34:23;99379.48;;;7.36;94.87
58785;BME280;44557;51.862;19.378;2023-04-19T08:36:24;99378.80;;;7.44;94.56
58785;BME280;44557;51.862;19.378;2023-04-19T08:38:28;99377.79;;;7.46;94.44
58785;BME280;44557;51.862;19.378;2023-04-19T08:40:30;99375.73;;;7.37;95.06
58785;BME280;44557;51.862;19.378;2023-04-19T08:42:32;99373.44;;;7.48;94.81
58785;BME280;44557;51.862;19.378;2023-04-19T08:44:35;99370.95;;;7.59;93.83
58785;BME280;44557;51.862;19.378;2023-04-19T08:46:40;99371.34;;;7.59;93.97
58785;BME280;44557;51.862;19.378;2023-04-19T08:48:43;99369.55;;;7.54;93.71
58785;BME280;44557;51.862;19.378;2023-04-19T08:50:46;99375.88;;;7.50;94.88
58785;BME280;44557;51.862;19.378;2023-04-19T08:52:49;99370.59;;;7.64;94.72
58785;BME280;44557;51.862;19.378;2023-04-19T08:54:53;99375.78;;;7.64;93.89
58785;BME280;44557;51.862;19.378;2023-04-19T08:56:58;99376.23;;;7.64;93.47
58785;BME280;44557;51.862;19.378;2023-04-19T08:59:00;99375.38;;;7.60;93.66
58785;BME280;44557;51.862;19.378;2023-04-19T09:01:06;99384.23;;;7.66;94.86
58785;BME280;44557;51.862;19.378;2023-04-19T09:03:08;99377.32;;;7.76;93.96
58785;BME280;44557;51.862;19.378;2023-04-19T09:05:12;99377.82;;;7.71;93.72
58785;BME280;44557;51.862;19.378;2023-04-19T09:07:27;99373.30;;;7.74;94.01
58785;BME280;44557;51.862;19.378;2023-04-19T09:09:29;99376.73;;;7.73;94.58
58785;BME280;44557;51.862;19.378;2023-04-19T09:11:37;99374.62;;;7.83;94.36
58785;BME280;44557;51.862;19.378;2023-04-19T09:13:39;99379.75;;;7.75;94.33
58785;BME280;44557;51.862;19.378;2023-04-19T09:15:42;99377.61;;;7.70;95.12
58785;BME280;44557;51.862;19.378;2023-04-19T09:22:12;99376.72;;;7.64;94.33
58785;BME280;44557;51.862;19.378;2023-04-19T09:24:14;99374.16;;;7.77;94.33
58785;BME280;44557;51.862;19.378;2023-04-19T09:26:15;99375.99;;;7.71;95.53
58785;BME280;44557;51.862;19.378;2023-04-19T09:28:17;99376.46;;;7.84;94.98
58785;BME280;44557;51.862;19.378;2023-04-19T09:30:24;99375.06;;;7.88;94.34
58785;BME280;44557;51.862;19.378;2023-04-19T09:32:26;99374.71;;;7.93;94.07
58785;BME280;44557;51.862;19.378;2023-04-19T09:34:29;99372.31;;;8.12;92.86
58785;BME280;44557;51.862;19.378;2023-04-19T09:36:32;99374.33;;;8.14;93.40
58785;BME280;44557;51.862;19.378;2023-04-19T09:38:47;99371.91;;;8.25;93.24
58785;BME280;44557;51.862;19.378;2023-04-19T09:40:49;99373.23;;;8.08;91.86
58785;BME280;44557;51.862;19.378;2023-04-19T09:42:51;99370.61;;;7.94;92.07
58785;BME280;44557;51.862;19.378;2023-04-19T09:44:57;99374.31;;;7.87;91.96
58785;BME280;44557;51.862;19.378;2023-04-19T09:46:59;99374.81;;;7.82;92.85
58785;BME280;44557;51.862;19.378;2023-04-19T09:51:17;99379.42;;;7.84;93.06
58785;BME280;44557;51.862;19.378;2023-04-19T09:53:20;99384.08;;;7.75;93.35
58785;BME280;44557;51.862;19.378;2023-04-19T09:55:26;99384.55;;;7.77;93.29
58785;BME280;44557;51.862;19.378;2023-04-19T09:57:27;99392.30;;;7.67;93.97
58785;BME280;44557;51.862;19.378;2023-04-19T09:59:29;99387.47;;;7.61;94.37
58785;BME280;44557;51.862;19.378;2023-04-19T10:03:47;99384.23;;;7.75;93.66
58785;BME280;44557;51.862;19.378;2023-04-19T10:05:49;99384.08;;;7.62;94.08
58785;BME280;44557;51.862;19.378;2023-04-19T10:07:52;99387.40;;;7.59;94.68
58785;BME280;44557;51.862;19.378;2023-04-19T10:09:57;99387.78;;;7.50;94.84
58785;BME280;44557;51.862;19.378;2023-04-19T10:12:00;99386.71;;;7.51;95.63
58785;BME280;44557;51.862;19.378;2023-04-19T10:14:05;99389.42;;;7.48;96.32
58785;BME280;44557;51.862;19.378;2023-04-19T10:16:07;99386.87;;;7.54;96.34
58785;BME280;44557;51.862;19.378;2023-04-19T10:18:08;99383.95;;;7.56;95.85
58785;BME280;44557;51.862;19.378;2023-04-19T10:20:19;99383.15;;;7.57;95.46
58785;BME280;44557;51.862;19.378;2023-04-19T10:22:19;99383.59;;;7.60;95.52
58785;BME280;44557;51.862;19.378;2023-04-19T10:24:22;99382.64;;;7.70;94.97
58785;BME280;44557;51.862;19.378;2023-04-19T10:26:24;99379.06;;;7.80;94.54
58785;BME280;44557;51.862;19.378;2023-04-19T10:28:29;99373.90;;;7.77;95.71
58785;BME280;44557;51.862;19.378;2023-04-19T10:30:31;99374.88;;;7.85;95.58
58785;BME280;44557;51.862;19.378;2023-04-19T10:32:37;99370.13;;;7.86;94.54
58785;BME280;44557;51.862;19.378;2023-04-19T10:34:39;99376.45;;;7.69;95.63
58785;BME280;44557;51.862;19.378;2023-04-19T10:36:43;99373.21;;;7.72;95.47
58785;BME280;44557;51.862;19.378;2023-04-19T10:40:58;99375.16;;;7.77;96.72
58785;BME280;44557;51.862;19.378;2023-04-19T10:52:26;99377.44;;;7.98;94.42
58785;BME280;44557;51.862;19.378;2023-04-19T10:54:32;99382.41;;;7.99;94.20
58785;BME280;44557;51.862;19.378;2023-04-19T11:06:14;99389.69;;;7.86;95.35
58785;BME280;44557;51.862;19.378;2023-04-19T11:08:23;99382.81;;;8.03;95.15
58785;BME280;44557;51.862;19.378;2023-04-19T11:10:29;99378.83;;;8.13;94.54
58785;BME280;44557;51.862;19.378;2023-04-19T11:12:40;99378.55;;;8.11;93.65
58785;BME280;44557;51.862;19.378;2023-04-19T11:14:47;99376.34;;;8.09;93.50
58785;BME280;44557;51.862;19.378;2023-04-19T11:16:49;99379.90;;;8.10;94.04
58785;BME280;44557;51.862;19.378;2023-04-19T11:18:51;99379.59;;;8.10;94.53
58785;BME280;44557;51.862;19.378;2023-04-19T11:20:53;99378.64;;;8.19;94.26
58785;BME280;44557;51.862;19.378;2023-04-19T11:22:55;99378.63;;;8.30;93.92
58785;BME280;44557;51.862;19.378;2023-04-19T11:25:17;99377.39;;;8.32;92.79
58785;BME280;44557;51.862;19.378;2023-04-19T11:27:22;99381.22;;;8.43;92.45
58785;BME280;44557;51.862;19.378;2023-04-19T11:29:24;99374.65;;;8.40;92.12
58785;BME280;44557;51.862;19.378;2023-04-19T11:31:26;99378.27;;;8.44;91.66
58785;BME280;44557;51.862;19.378;2023-04-19T11:33:35;99378.55;;;8.47;91.19
58785;BME280;44557;51.862;19.378;2023-04-19T11:35:38;99379.76;;;8.44;91.67
58785;BME280;44557;51.862;19.378;2023-04-19T11:37:40;99385.52;;;8.53;91.47
58785;BME280;44557;51.862;19.378;2023-04-19T11:39:45;99386.14;;;8.47;91.82
58785;BME280;44557;51.862;19.378;2023-04-19T11:41:47;99387.80;;;8.57;91.09
58785;BME280;44557;51.862;19.378;2023-04-19T11:43:49;99385.66;;;8.50;91.10
58785;BME280;44557;51.862;19.378;2023-04-19T11:45:51;99392.29;;;8.50;91.31
58785;BME280;44557;51.862;19.378;2023-04-19T11:47:53;99391.77;;;8.52;90.74
58785;BME280;44557;51.862;19.378;2023-04-19T11:49:55;99392.75;;;8.45;91.48
58785;BME280;44557;51.862;19.378;2023-04-19T11:52:01;99394.59;;;8.56;91.41
58785;BME280;44557;51.862;19.378;2023-04-19T11:54:12;99392.78;;;8.76;91.14
58785;BME280;44557;51.862;19.378;2023-04-19T11:56:15;99393.07;;;8.76;90.63
58785;BME280;44557;51.862;19.378;2023-04-19T11:58:36;99395.13;;;8.69;90.34
58785;BME280;44557;51.862;19.378;2023-04-19T12:00:38;99397.48;;;8.70;89.65
58785;BME280;44557;51.862;19.378;2023-04-19T12:02:42;99401.16;;;8.63;89.96
58785;BME280;44557;51.862;19.378;2023-04-19T12:04:44;99401.67;;;8.64;90.08
58785;BME280;44557;51.862;19.378;2023-04-19T12:18:46;99386.35;;;8.74;89.43